createdAt,value
2023-09-21T00:00:21.972Z,81.896973
2023-09-21T00:01:31.658Z,81.555176
2023-09-21T00:02:41.392Z,81.555176
2023-09-21T00:03:50.511Z,81.896973
2023-09-21T00:04:59.703Z,82.299805
2023-09-21T00:06:09.493Z,82.501221
2023-09-21T00:07:19.047Z,82.641602
2023-09-21T00:08:28.721Z,82.843018
2023-09-21T00:09:37.445Z,83.14209
2023-09-21T00:10:45.153Z,83.24585
2023-09-21T00:11:54.818Z,83.343506
2023-09-21T00:13:04.482Z,83.24585
2023-09-21T00:14:14.232Z,83.14209
2023-09-21T00:15:22.917Z,83.14209
2023-09-21T00:16:32.678Z,83.044434
2023-09-21T00:17:42.395Z,82.739258
2023-09-21T00:18:51.106Z,82.537842
2023-09-21T00:19:58.670Z,82.440186
2023-09-21T00:21:08.371Z,82.641602
2023-09-21T00:22:17.054Z,82.843018
2023-09-21T00:23:26.722Z,83.044434
2023-09-21T00:24:36.416Z,83.24585
2023-09-21T00:25:45.106Z,83.343506
2023-09-21T00:26:54.780Z,83.24585
2023-09-21T00:28:03.477Z,83.081055
2023-09-21T00:29:11.190Z,83.282471
2023-09-21T00:30:20.888Z,83.825684
2023-09-21T00:31:30.604Z,84.429932
2023-09-21T00:32:40.322Z,84.332275
2023-09-21T00:33:49.934Z,84.088135
2023-09-21T00:34:58.650Z,84.631348
2023-09-21T00:36:08.349Z,84.692383
2023-09-21T00:37:16.018Z,84.490967
2023-09-21T00:38:24.797Z,84.191895
2023-09-21T00:39:34.557Z,83.990479
2023-09-21T00:40:43.254Z,83.990479
2023-09-21T00:41:52.008Z,83.990479
2023-09-21T00:43:00.663Z,84.191895
2023-09-21T00:44:09.389Z,84.692383
2023-09-21T00:45:18.093Z,84.490967
2023-09-21T00:46:26.789Z,84.490967
2023-09-21T00:47:36.643Z,84.490967
2023-09-21T00:48:45.006Z,84.796143
2023-09-21T00:49:55.591Z,85.198975
2023-09-21T00:51:06.007Z,85.296631
2023-09-21T00:52:14.762Z,85.400391
2023-09-21T00:53:23.510Z,85.253906
2023-09-21T00:54:32.163Z,84.851074
2023-09-21T00:55:41.846Z,84.106445
2023-09-21T00:56:51.653Z,83.306885
2023-09-21T00:57:59.332Z,83.105469
2023-09-21T00:59:06.997Z,82.904053
2023-09-21T01:00:16.703Z,82.641602
2023-09-21T01:01:26.408Z,82.641602
2023-09-21T01:02:35.225Z,82.641602
2023-09-21T01:03:43.935Z,82.843018
2023-09-21T01:04:53.513Z,82.641602
2023-09-21T01:06:03.210Z,82.641602
2023-09-21T01:07:10.915Z,82.641602
2023-09-21T01:08:19.594Z,82.940674
2023-09-21T01:09:29.344Z,82.843018
2023-09-21T01:10:39.018Z,83.184814
2023-09-21T01:11:47.785Z,83.685303
2023-09-21T01:12:57.382Z,84.429932
2023-09-21T01:14:06.125Z,85.479736
2023-09-21T01:15:15.812Z,85.778809
2023-09-21T01:16:24.600Z,85.882568
2023-09-21T01:17:34.212Z,85.681152
2023-09-21T01:18:43.350Z,85.375977
2023-09-21T01:19:51.673Z,85.137939
2023-09-21T01:21:01.487Z,84.735107
2023-09-21T01:22:11.100Z,84.393311
2023-09-21T01:23:19.820Z,84.191895
2023-09-21T01:24:29.464Z,83.587646
2023-09-21T01:25:38.139Z,83.587646
2023-09-21T01:26:45.933Z,83.282471
2023-09-21T01:27:54.644Z,83.282471
2023-09-21T01:29:03.300Z,83.184814
2023-09-21T01:30:11.990Z,83.184814
2023-09-21T01:31:21.731Z,83.282471
2023-09-21T01:32:30.423Z,83.184814
2023-09-21T01:33:40.133Z,83.282471
2023-09-21T01:34:47.787Z,83.081055
2023-09-21T01:35:55.680Z,82.879639
2023-09-21T01:37:05.534Z,82.678223
2023-09-21T01:38:15.200Z,82.440186
2023-09-21T01:39:24.912Z,82.177734
2023-09-21T01:40:34.596Z,82.336426
2023-09-21T01:41:43.362Z,82.037354
2023-09-21T01:42:52.998Z,81.835938
2023-09-21T01:44:02.682Z,81.329346
2023-09-21T01:45:11.405Z,81.530762
2023-09-21T01:46:21.029Z,81.774902
2023-09-21T01:47:29.762Z,81.530762
2023-09-21T01:48:39.543Z,81.530762
2023-09-21T01:49:48.131Z,81.835938
2023-09-21T01:50:56.833Z,81.835938
2023-09-21T01:52:06.485Z,81.634521
2023-09-21T01:53:15.183Z,81.835938
2023-09-21T01:54:22.822Z,81.634521
2023-09-21T01:55:32.507Z,81.732178
2023-09-21T01:56:42.177Z,81.835938
2023-09-21T01:57:50.822Z,81.835938
2023-09-21T01:58:59.526Z,81.329346
2023-09-21T02:00:09.277Z,80.926514
2023-09-21T02:01:18.969Z,81.030273
2023-09-21T02:02:27.702Z,81.231689
2023-09-21T02:03:36.368Z,81.329346
2023-09-21T02:04:46.006Z,81.732178
2023-09-21T02:05:55.690Z,82.073975
2023-09-21T02:07:04.413Z,82.177734
2023-09-21T02:08:13.101Z,82.37915
2023-09-21T02:09:22.820Z,82.580566
2023-09-21T02:10:32.447Z,82.781982
2023-09-21T02:11:40.106Z,82.678223
2023-09-21T02:12:47.788Z,82.275391
2023-09-21T02:13:57.521Z,82.275391
2023-09-21T02:15:07.207Z,81.976318
2023-09-21T02:16:16.919Z,81.872559
2023-09-21T02:17:26.586Z,81.671143
2023-09-21T02:18:35.297Z,81.976318
2023-09-21T02:19:45.020Z,81.976318
2023-09-21T02:20:55.345Z,82.177734
2023-09-21T02:22:01.400Z,82.177734
2023-09-21T02:23:11.086Z,82.177734
2023-09-21T02:24:19.811Z,81.872559
2023-09-21T02:25:29.523Z,81.872559
2023-09-21T02:26:39.223Z,81.573486
2023-09-21T02:27:47.855Z,81.170654
2023-09-21T02:28:57.541Z,81.268311
2023-09-21T02:30:05.247Z,81.573486
2023-09-21T02:31:14.158Z,81.671143
2023-09-21T02:32:23.519Z,81.872559
2023-09-21T02:33:33.275Z,81.573486
2023-09-21T02:34:41.978Z,81.671143
2023-09-21T02:35:50.686Z,81.774902
2023-09-21T02:36:59.351Z,82.275391
2023-09-21T02:38:09.034Z,82.37915
2023-09-21T02:39:16.681Z,82.476807
2023-09-21T02:40:24.347Z,82.678223
2023-09-21T02:41:34.066Z,82.781982
2023-09-21T02:42:41.705Z,82.91626
2023-09-21T02:43:51.386Z,82.91626
2023-09-21T02:45:00.217Z,83.02002
2023-09-21T02:46:08.817Z,82.580566
2023-09-21T02:47:17.468Z,82.37915
2023-09-21T02:48:26.321Z,81.976318
2023-09-21T02:49:35.789Z,81.671143
2023-09-21T02:50:45.465Z,81.671143
2023-09-21T02:51:54.175Z,81.469727
2023-09-21T02:53:03.888Z,81.469727
2023-09-21T02:54:13.526Z,81.573486
2023-09-21T02:55:22.213Z,81.774902
2023-09-21T02:56:30.895Z,81.774902
2023-09-21T02:57:40.597Z,81.90918
2023-09-21T02:58:50.265Z,81.811523
2023-09-21T02:59:57.914Z,81.90918
2023-09-21T03:01:06.691Z,81.811523
2023-09-21T03:02:16.328Z,81.506348
2023-09-21T03:03:25.089Z,81.506348
2023-09-21T03:04:33.679Z,82.110596
2023-09-21T03:05:42.383Z,82.415771
2023-09-21T03:06:51.023Z,82.617188
2023-09-21T03:08:00.707Z,82.312012
2023-09-21T03:09:08.413Z,82.214355
2023-09-21T03:10:17.065Z,82.312012
2023-09-21T03:11:26.770Z,82.513428
2023-09-21T03:12:35.447Z,82.415771
2023-09-21T03:13:45.207Z,82.415771
2023-09-21T03:14:54.868Z,82.415771
2023-09-21T03:16:04.598Z,82.513428
2023-09-21T03:17:14.213Z,82.617188
2023-09-21T03:18:22.004Z,82.617188
2023-09-21T03:19:29.538Z,82.415771
2023-09-21T03:20:39.286Z,82.354736
2023-09-21T03:21:47.885Z,82.556152
2023-09-21T03:22:56.553Z,82.556152
2023-09-21T03:24:05.244Z,82.757568
2023-09-21T03:25:14.902Z,82.653809
2023-09-21T03:26:26.047Z,82.855225
2023-09-21T03:27:33.289Z,82.653809
2023-09-21T03:28:41.060Z,82.855225
2023-09-21T03:29:50.720Z,83.300781
2023-09-21T03:31:00.414Z,84.350586
2023-09-21T03:32:09.019Z,84.552002
2023-09-21T03:33:17.849Z,84.448242
2023-09-21T03:34:26.385Z,84.552002
2023-09-21T03:35:35.065Z,84.448242
2023-09-21T03:36:43.782Z,84.649658
2023-09-21T03:37:52.444Z,84.448242
2023-09-21T03:39:02.203Z,84.448242
2023-09-21T03:40:11.886Z,84.448242
2023-09-21T03:41:20.555Z,84.350586
2023-09-21T03:42:29.288Z,84.552002
2023-09-21T03:43:38.991Z,84.552002
2023-09-21T03:44:48.701Z,84.411621
2023-09-21T03:45:56.425Z,84.210205
2023-09-21T03:47:04.054Z,83.80127
2023-09-21T03:48:14.206Z,84.649658
2023-09-21T03:49:22.524Z,84.753418
2023-09-21T03:50:32.154Z,84.552002
2023-09-21T03:51:40.836Z,84.350586
2023-09-21T03:52:49.529Z,83.947754
2023-09-21T03:54:00.267Z,84.14917
2023-09-21T03:55:09.898Z,84.008789
2023-09-21T03:56:18.714Z,84.04541
2023-09-21T03:57:28.404Z,83.905029
2023-09-21T03:58:37.072Z,83.80127
2023-09-21T03:59:45.795Z,83.80127
2023-09-21T04:00:54.492Z,83.905029
2023-09-21T04:02:03.547Z,84.04541
2023-09-21T04:03:15.424Z,84.246826
2023-09-21T04:04:23.347Z,84.14917
2023-09-21T04:05:31.045Z,84.04541
2023-09-21T04:06:40.684Z,83.947754
2023-09-21T04:07:49.350Z,83.947754
2023-09-21T04:08:59.119Z,83.703613
2023-09-21T04:10:07.772Z,83.599854
2023-09-21T04:11:16.415Z,83.300781
2023-09-21T04:12:26.119Z,83.239746
2023-09-21T04:13:33.872Z,83.337402
2023-09-21T04:14:41.543Z,84.088135
2023-09-21T04:15:51.192Z,84.490967
2023-09-21T04:17:00.859Z,84.490967
2023-09-21T04:18:10.632Z,84.490967
2023-09-21T04:19:20.243Z,84.490967
2023-09-21T04:20:28.930Z,84.387207
2023-09-21T04:21:38.622Z,83.947754
2023-09-21T04:22:46.247Z,83.843994
2023-09-21T04:23:56.006Z,83.782959
2023-09-21T04:25:05.681Z,84.088135
2023-09-21T04:26:17.242Z,84.088135
2023-09-21T04:27:26.021Z,83.843994
2023-09-21T04:28:35.698Z,83.642578
2023-09-21T04:29:43.445Z,83.538818
2023-09-21T04:30:53.087Z,83.880615
2023-09-21T04:32:01.822Z,84.185791
2023-09-21T04:33:10.596Z,84.289551
2023-09-21T04:34:20.217Z,84.631348
2023-09-21T04:35:29.931Z,85.339355
2023-09-21T04:36:39.599Z,85.437012
2023-09-21T04:37:48.312Z,85.577393
2023-09-21T04:38:56.992Z,85.638428
2023-09-21T04:40:06.677Z,85.192871
2023-09-21T04:41:16.633Z,84.790039
2023-09-21T04:42:26.031Z,84.448242
2023-09-21T04:43:33.959Z,83.947754
2023-09-21T04:44:42.506Z,83.642578
2023-09-21T04:45:52.200Z,83.239746
2023-09-21T04:47:00.875Z,83.239746
2023-09-21T04:48:09.667Z,83.135986
2023-09-21T04:49:19.292Z,83.642578
2023-09-21T04:50:29.013Z,83.947754
2023-09-21T04:51:38.670Z,84.04541
2023-09-21T04:52:46.469Z,84.04541
2023-09-21T04:53:56.071Z,83.947754
2023-09-21T04:55:05.750Z,83.947754
2023-09-21T04:56:14.423Z,84.04541
2023-09-21T04:57:23.144Z,83.947754
2023-09-21T04:58:31.805Z,83.843994
2023-09-21T04:59:40.461Z,83.642578
2023-09-21T05:00:50.721Z,83.538818
2023-09-21T05:01:58.850Z,83.441162
2023-09-21T05:03:06.575Z,83.642578
2023-09-21T05:04:16.292Z,83.502197
2023-09-21T05:05:25.865Z,83.398438
2023-09-21T05:06:35.590Z,83.703613
2023-09-21T05:07:45.330Z,83.502197
2023-09-21T05:08:53.976Z,83.300781
2023-09-21T05:10:03.647Z,83.197021
2023-09-21T05:11:12.338Z,83.197021
2023-09-21T05:12:20.112Z,83.300781
2023-09-21T05:13:29.769Z,83.300781
2023-09-21T05:14:40.443Z,83.197021
2023-09-21T05:15:49.115Z,83.197021
2023-09-21T05:16:57.828Z,83.197021
2023-09-21T05:18:06.581Z,83.300781
2023-09-21T05:19:16.292Z,83.197021
2023-09-21T05:20:24.981Z,83.197021
2023-09-21T05:21:32.664Z,82.995605
2023-09-21T05:22:42.539Z,82.855225
2023-09-21T05:23:52.122Z,82.757568
2023-09-21T05:25:00.851Z,82.757568
2023-09-21T05:26:09.573Z,82.653809
2023-09-21T05:27:18.246Z,82.757568
2023-09-21T05:28:27.920Z,82.855225
2023-09-21T05:29:35.646Z,82.757568
2023-09-21T05:30:44.385Z,83.1604
2023-09-21T05:31:55.083Z,83.563232
2023-09-21T05:33:04.787Z,83.966064
2023-09-21T05:34:14.470Z,83.966064
2023-09-21T05:35:23.139Z,83.459473
2023-09-21T05:36:32.873Z,83.1604
2023-09-21T05:37:42.577Z,83.361816
2023-09-21T05:38:50.282Z,84.27124
2023-09-21T05:39:57.909Z,83.117676
2023-09-21T05:41:07.619Z,82.513428
2023-09-21T05:42:16.319Z,82.214355
2023-09-21T05:43:27.101Z,82.049561
2023-09-21T05:44:35.613Z,82.354736
2023-09-21T05:45:45.418Z,82.653809
2023-09-21T05:46:55.065Z,82.556152
2023-09-21T05:48:04.850Z,82.250977
2023-09-21T05:49:13.466Z,82.354736
2023-09-21T05:50:23.129Z,82.354736
2023-09-21T05:51:31.842Z,83.02002
2023-09-21T05:52:40.534Z,82.415771
2023-09-21T05:53:50.267Z,82.110596
2023-09-21T05:54:59.906Z,81.90918
2023-09-21T05:56:09.565Z,82.214355
2023-09-21T05:57:17.364Z,82.513428
2023-09-21T05:58:24.933Z,82.012939
2023-09-21T05:59:34.816Z,81.976318
2023-09-21T06:00:43.540Z,81.707764
2023-09-21T06:01:52.229Z,81.573486
2023-09-21T06:03:01.997Z,81.610107
2023-09-21T06:04:10.772Z,81.469727
2023-09-21T06:05:20.357Z,81.268311
2023-09-21T06:06:29.020Z,81.304932
2023-09-21T06:07:36.821Z,81.506348
2023-09-21T06:08:46.525Z,81.610107
2023-09-21T06:09:55.216Z,81.610107
2023-09-21T06:11:04.945Z,81.506348
2023-09-21T06:12:14.693Z,81.506348
2023-09-21T06:13:24.377Z,81.268311
2023-09-21T06:14:34.057Z,80.969238
2023-09-21T06:15:41.823Z,80.523682
2023-09-21T06:16:49.453Z,80.426025
2023-09-21T06:17:59.240Z,80.426025
2023-09-21T06:19:08.833Z,80.627441
2023-09-21T06:20:18.525Z,80.224609
2023-09-21T06:21:27.276Z,80.084229
2023-09-21T06:22:36.951Z,80.084229
2023-09-21T06:23:46.648Z,79.846191
2023-09-21T06:24:54.357Z,79.443359
2023-09-21T06:26:02.059Z,78.942871
2023-09-21T06:27:11.829Z,79.003906
2023-09-21T06:28:21.459Z,78.704834
2023-09-21T06:29:31.123Z,78.900146
2023-09-21T06:30:39.853Z,78.503418
2023-09-21T06:32:05.634Z,78.063965
2023-09-21T06:33:00.210Z,78.161621
2023-09-21T06:34:07.864Z,78.326416
2023-09-21T06:35:15.539Z,78.125
2023-09-21T06:36:25.307Z,77.789307
2023-09-21T06:37:32.001Z,77.587891
2023-09-21T06:38:41.886Z,77.349854
2023-09-21T06:39:50.424Z,76.745605
2023-09-21T06:41:00.137Z,76.507568
2023-09-21T06:42:08.932Z,76.171875
2023-09-21T06:43:18.703Z,75.671387
2023-09-21T06:44:28.352Z,75.231934
2023-09-21T06:45:37.053Z,74.298096
2023-09-21T06:46:43.858Z,73.461914
2023-09-21T06:47:53.773Z,72.460938
2023-09-21T06:49:06.236Z,73.028564
2023-09-21T06:50:12.407Z,72.058105
2023-09-21T06:51:22.146Z,71.490479
2023-09-21T06:52:30.789Z,71.026611
2023-09-21T06:53:40.455Z,70.794678
2023-09-21T06:54:48.134Z,70.458984
2023-09-21T06:55:57.925Z,70.123291
2023-09-21T06:57:07.573Z,69.390869
2023-09-21T06:58:17.229Z,69.256592
2023-09-21T06:59:27.050Z,68.62793
2023-09-21T07:00:36.846Z,68.792725
2023-09-21T07:01:46.430Z,67.266846
2023-09-21T07:02:56.238Z,66.73584
2023-09-21T07:04:03.967Z,66.137695
2023-09-21T07:05:13.561Z,65.808105
2023-09-21T07:06:23.353Z,65.179443
2023-09-21T07:07:31.911Z,64.581299
2023-09-21T07:08:40.641Z,64.453125
2023-09-21T07:09:50.328Z,63.952637
2023-09-21T07:10:59.024Z,64.355469
2023-09-21T07:12:08.944Z,64.251709
2023-09-21T07:13:17.387Z,64.056396
2023-09-21T07:14:26.095Z,63.330078
2023-09-21T07:15:35.823Z,62.5
2023-09-21T07:16:45.471Z,62.670898
2023-09-21T07:17:55.233Z,62.60376
2023-09-21T07:19:03.892Z,64.0625
2023-09-21T07:20:13.591Z,62.799072
2023-09-21T07:21:23.262Z,63.427734
2023-09-21T07:22:30.922Z,63.568115
2023-09-21T07:23:40.599Z,62.243652
2023-09-21T07:24:50.354Z,62.811279
2023-09-21T07:25:59.062Z,61.49292
2023-09-21T07:27:07.776Z,61.358643
2023-09-21T07:28:17.492Z,60.437012
2023-09-21T07:29:26.196Z,60.113525
2023-09-21T07:30:35.880Z,59.619141
2023-09-21T07:31:43.606Z,58.795166
2023-09-21T07:32:52.386Z,58.203125
2023-09-21T07:34:01.963Z,58.300781
2023-09-21T07:35:11.630Z,58.599854
2023-09-21T07:36:20.421Z,58.502197
2023-09-21T07:37:30.080Z,58.374023
2023-09-21T07:38:38.808Z,58.770752
2023-09-21T07:39:48.485Z,58.117676
2023-09-21T07:40:56.156Z,57.623291
2023-09-21T07:42:03.912Z,57.104492
2023-09-21T07:43:13.553Z,55.792236
2023-09-21T07:44:22.240Z,54.730225
2023-09-21T07:45:30.906Z,56.072998
2023-09-21T07:46:39.617Z,57.751465
2023-09-21T07:47:49.397Z,57.458496
2023-09-21T07:48:59.081Z,56.072998
2023-09-21T07:50:06.689Z,56.463623
2023-09-21T07:51:14.423Z,55.847168
2023-09-21T07:52:24.083Z,54.760742
2023-09-21T07:53:32.807Z,54.632568
2023-09-21T07:54:41.503Z,55.126953
2023-09-21T07:55:50.210Z,55.426025
2023-09-21T07:56:59.979Z,55.749512
2023-09-21T07:58:09.671Z,56.243896
2023-09-21T07:59:18.359Z,55.847168
2023-09-21T08:00:25.107Z,55.944824
2023-09-21T08:01:34.741Z,56.90918
2023-09-21T08:02:43.525Z,56.384277
2023-09-21T08:03:53.282Z,55.767822
2023-09-21T08:05:03.007Z,55.047607
2023-09-21T08:06:11.568Z,55.047607
2023-09-21T08:07:21.257Z,52.679443
2023-09-21T08:08:28.974Z,53.594971
2023-09-21T08:09:38.785Z,52.532959
2023-09-21T08:10:48.394Z,52.685547
2023-09-21T08:11:58.122Z,53.399658
2023-09-21T08:13:07.016Z,54.266357
2023-09-21T08:14:16.535Z,54.064941
2023-09-21T08:15:25.268Z,55.029297
2023-09-21T08:16:34.950Z,54.931641
2023-09-21T08:17:42.648Z,55.072021
2023-09-21T08:18:50.348Z,54.034424
2023-09-21T08:20:00.150Z,53.149414
2023-09-21T08:21:09.804Z,52.331543
2023-09-21T08:22:19.487Z,52.703857
2023-09-21T08:23:29.176Z,52.606201
2023-09-21T08:24:37.910Z,51.78833
2023-09-21T08:25:47.690Z,51.422119
2023-09-21T08:26:57.435Z,52.532959
2023-09-21T08:28:05.114Z,52.13623
2023-09-21T08:29:14.767Z,51.641846
2023-09-21T08:30:23.545Z,51.812744
2023-09-21T08:31:33.267Z,51.324463
2023-09-21T08:32:41.927Z,51.025391
2023-09-21T08:33:50.603Z,50.756836
2023-09-21T08:35:00.351Z,51.593018
2023-09-21T08:36:10.097Z,52.832031
2023-09-21T08:37:19.773Z,52.703857
2023-09-21T08:38:29.468Z,52.679443
2023-09-21T08:39:37.228Z,52.386475
2023-09-21T08:40:47.873Z,52.752686
2023-09-21T08:41:56.584Z,52.160645
2023-09-21T08:43:05.255Z,52.355957
2023-09-21T08:44:13.967Z,53.344727
2023-09-21T08:45:22.670Z,52.062988
2023-09-21T08:46:32.414Z,52.404785
2023-09-21T08:47:41.639Z,52.575684
2023-09-21T08:48:51.375Z,51.049805
2023-09-21T08:50:01.070Z,51.641846
2023-09-21T08:51:09.749Z,50.65918
2023-09-21T08:52:19.454Z,49.456787
2023-09-21T08:53:29.161Z,49.035645
2023-09-21T08:54:37.902Z,50.091553
2023-09-21T08:55:47.585Z,48.400879
2023-09-21T08:56:56.323Z,48.10791
2023-09-21T08:58:05.013Z,48.474121
2023-09-21T08:59:14.710Z,49.334717
2023-09-21T09:00:24.908Z,48.059082
2023-09-21T09:01:33.702Z,46.881104
2023-09-21T09:02:43.397Z,48.083496
2023-09-21T09:03:52.121Z,47.076416
2023-09-21T09:05:01.750Z,48.22998
2023-09-21T09:06:09.552Z,47.131348
2023-09-21T09:07:18.219Z,46.520996
2023-09-21T09:08:27.972Z,46.594238
2023-09-21T09:09:37.799Z,46.42334
2023-09-21T09:10:47.387Z,45.440674
2023-09-21T09:11:57.096Z,45.6604
2023-09-21T09:13:05.808Z,46.130371
2023-09-21T09:14:15.536Z,44.854736
2023-09-21T09:15:24.243Z,45.489502
2023-09-21T09:16:32.971Z,45.855713
2023-09-21T09:17:42.710Z,45.147705
2023-09-21T09:18:51.360Z,45.147705
2023-09-21T09:20:00.034Z,45.147705
2023-09-21T09:21:09.762Z,44.146729
2023-09-21T09:22:19.444Z,45.397949
2023-09-21T09:23:29.187Z,44.714355
2023-09-21T09:24:38.905Z,44.98291
2023-09-21T09:25:47.567Z,44.9646
2023-09-21T09:26:57.308Z,44.451904
2023-09-21T09:28:06.994Z,43.847656
2023-09-21T09:29:15.710Z,44.140625
2023-09-21T09:30:24.436Z,41.967773
2023-09-21T09:31:33.097Z,42.010498
2023-09-21T09:32:43.242Z,43.475342
2023-09-21T09:33:50.782Z,43.591309
2023-09-21T09:34:58.278Z,43.438721
2023-09-21T09:36:08.020Z,43.536377
2023-09-21T09:37:16.666Z,44.128418
2023-09-21T09:38:26.329Z,44.689941
2023-09-21T09:39:35.066Z,43.615723
2023-09-21T09:40:44.881Z,44.006348
2023-09-21T09:41:54.530Z,43.85376
2023-09-21T09:43:03.273Z,43.731689
2023-09-21T09:44:12.902Z,43.42041
2023-09-21T09:45:22.718Z,44.189453
2023-09-21T09:46:31.380Z,45.147705
2023-09-21T09:47:40.043Z,44.421387
2023-09-21T09:48:49.782Z,44.006348
2023-09-21T09:49:58.404Z,43.572998
2023-09-21T09:51:08.159Z,42.596436
2023-09-21T09:52:16.844Z,42.889404
2023-09-21T09:53:25.610Z,43.029785
2023-09-21T09:54:35.232Z,42.755127
2023-09-21T09:55:45.015Z,43.811035
2023-09-21T09:56:54.685Z,44.519043
2023-09-21T09:58:04.340Z,43.145752
2023-09-21T09:59:13.054Z,43.341064
2023-09-21T10:00:22.830Z,43.243408
2023-09-21T10:01:32.567Z,42.950439
2023-09-21T10:02:40.303Z,43.200684
2023-09-21T10:03:50.397Z,42.907715
2023-09-21T10:04:59.953Z,42.303467
2023-09-21T10:06:07.688Z,41.699219
2023-09-21T10:07:16.382Z,42.346191
2023-09-21T10:08:25.055Z,43.408203
2023-09-21T10:09:34.869Z,44.42749
2023-09-21T10:10:43.591Z,45.288086
2023-09-21T10:11:51.368Z,45.025635
2023-09-21T10:13:00.982Z,44.927979
2023-09-21T10:14:10.667Z,44.494629
2023-09-21T10:15:21.357Z,43.200684
2023-09-21T10:16:32.134Z,43.572998
2023-09-21T10:17:39.812Z,42.553711
2023-09-21T10:18:49.582Z,41.967773
2023-09-21T10:19:58.210Z,42.047119
2023-09-21T10:21:06.954Z,41.75415
2023-09-21T10:22:16.716Z,42.456055
2023-09-21T10:23:25.409Z,42.5354
2023-09-21T10:24:34.110Z,41.442871
2023-09-21T10:25:42.898Z,40.734863
2023-09-21T10:26:50.471Z,40.734863
2023-09-21T10:28:00.333Z,40.637207
2023-09-21T10:29:09.872Z,41.906738
2023-09-21T10:30:19.585Z,40.661621
2023-09-21T10:31:29.281Z,40.777588
2023-09-21T10:32:37.984Z,40.50293
2023-09-21T10:33:47.757Z,40.625
2023-09-21T10:34:57.379Z,41.28418
2023-09-21T10:36:06.104Z,40.429688
2023-09-21T10:37:14.808Z,40.661621
2023-09-21T10:38:23.477Z,40.563965
2023-09-21T10:39:33.475Z,40.838623
2023-09-21T10:40:42.154Z,40.722656
2023-09-21T10:41:49.849Z,40.679932
2023-09-21T10:42:59.582Z,40.856934
2023-09-21T10:44:08.376Z,40.545654
2023-09-21T10:45:18.056Z,40.350342
2023-09-21T10:46:27.765Z,39.880371
2023-09-21T10:47:36.408Z,40.350342
2023-09-21T10:48:46.222Z,40.136719
2023-09-21T10:49:53.760Z,40.234375
2023-09-21T10:51:01.551Z,40.838623
2023-09-21T10:52:11.230Z,40.252686
2023-09-21T10:53:20.921Z,40.429688
2023-09-21T10:54:30.647Z,40.093994
2023-09-21T10:55:39.332Z,39.898682
2023-09-21T10:56:48.381Z,38.824463
2023-09-21T10:57:58.044Z,39.099121
2023-09-21T10:59:07.735Z,39.4104
2023-09-21T11:00:16.612Z,39.746094
2023-09-21T11:01:26.189Z,39.880371
2023-09-21T11:02:35.870Z,39.666748
2023-09-21T11:03:44.569Z,39.978027
2023-09-21T11:04:53.310Z,41.40625
2023-09-21T11:06:02.091Z,41.796875
2023-09-21T11:07:11.783Z,41.656494
2023-09-21T11:08:19.455Z,40.643311
2023-09-21T11:09:28.143Z,39.941406
2023-09-21T11:10:36.827Z,40.307617
2023-09-21T11:11:45.527Z,40.386963
2023-09-21T11:12:54.241Z,40.270996
2023-09-21T11:14:02.943Z,39.862061
2023-09-21T11:15:11.654Z,39.648438
2023-09-21T11:16:21.539Z,38.787842
2023-09-21T11:17:30.142Z,39.080811
2023-09-21T11:18:38.841Z,38.690186
2023-09-21T11:19:47.571Z,38.745117
2023-09-21T11:20:56.292Z,39.160156
2023-09-21T11:22:05.095Z,39.648438
2023-09-21T11:23:13.754Z,39.72168
2023-09-21T11:24:22.472Z,39.569092
2023-09-21T11:25:32.166Z,39.978027
2023-09-21T11:26:40.892Z,40.447998
2023-09-21T11:27:49.628Z,39.331055
2023-09-21T11:28:59.525Z,39.4104
2023-09-21T11:30:08.184Z,38.983154
2023-09-21T11:31:16.863Z,38.769531
2023-09-21T11:32:26.625Z,39.331055
2023-09-21T11:33:36.240Z,39.099121
2023-09-21T11:34:45.999Z,38.476562
2023-09-21T11:35:54.926Z,37.854004
2023-09-21T11:37:02.612Z,38.049316
2023-09-21T11:38:11.291Z,37.176514
2023-09-21T11:39:20.304Z,37.872314
2023-09-21T11:40:29.972Z,36.669922
2023-09-21T11:41:39.660Z,37.237549
2023-09-21T11:42:48.508Z,36.828613
2023-09-21T11:43:58.176Z,36.651611
2023-09-21T11:45:07.951Z,36.242676
2023-09-21T11:46:16.632Z,35.253906
2023-09-21T11:47:26.397Z,34.185791
2023-09-21T11:48:35.333Z,34.399414
2023-09-21T11:49:44.716Z,35.076904
2023-09-21T11:50:54.463Z,34.857178
2023-09-21T11:52:03.186Z,35.437012
2023-09-21T11:53:12.891Z,35.308838
2023-09-21T11:54:20.619Z,35.388184
2023-09-21T11:55:28.497Z,36.730957
2023-09-21T11:56:38.308Z,35.662842
2023-09-21T11:57:47.964Z,34.381104
2023-09-21T11:58:55.654Z,34.265137
2023-09-21T12:00:04.374Z,35.449219
2023-09-21T12:01:13.149Z,34.576416
2023-09-21T12:02:22.773Z,34.851074
2023-09-21T12:03:32.803Z,34.814453
2023-09-21T12:04:40.680Z,33.892822
2023-09-21T12:05:50.252Z,34.570312
2023-09-21T12:07:00.231Z,32.598877
2023-09-21T12:08:09.035Z,32.519531
2023-09-21T12:09:18.811Z,34.234619
2023-09-21T12:10:27.467Z,33.71582
2023-09-21T12:11:37.471Z,33.392334
2023-09-21T12:12:45.995Z,33.69751
2023-09-21T12:13:54.812Z,34.155273
2023-09-21T12:15:04.536Z,35.144043
2023-09-21T12:16:14.216Z,35.369873
2023-09-21T12:17:23.987Z,34.851074
2023-09-21T12:18:33.781Z,34.509277
2023-09-21T12:19:44.422Z,33.166504
2023-09-21T12:20:54.005Z,33.734131
2023-09-21T12:22:02.685Z,33.441162
2023-09-21T12:23:11.522Z,32.971191
2023-09-21T12:24:21.482Z,33.843994
2023-09-21T12:25:30.121Z,33.24585
2023-09-21T12:26:39.861Z,32.733154
2023-09-21T12:27:48.583Z,32.507324
2023-09-21T12:28:57.248Z,32.58667
2023-09-21T12:30:05.972Z,31.958008
2023-09-21T12:31:14.681Z,32.15332
2023-09-21T12:32:24.479Z,32.055664
2023-09-21T12:33:41.810Z,31.750488
2023-09-21T12:34:42.891Z,32.025146
2023-09-21T12:35:52.709Z,31.427002
2023-09-21T12:37:01.349Z,31.103516
2023-09-21T12:38:09.996Z,33.215332
2023-09-21T12:39:19.436Z,34.460449
2023-09-21T12:40:29.200Z,33.782959
2023-09-21T12:41:38.880Z,33.959961
2023-09-21T12:42:47.533Z,34.429932
2023-09-21T12:43:56.301Z,34.320068
2023-09-21T12:45:06.005Z,35.809326
2023-09-21T12:46:14.734Z,34.362793
2023-09-21T12:47:23.494Z,33.47168
2023-09-21T12:48:33.189Z,33.782959
2023-09-21T12:49:41.830Z,33.978271
2023-09-21T12:50:51.505Z,33.166504
2023-09-21T12:52:00.334Z,32.714844
2023-09-21T12:53:10.034Z,33.007812
2023-09-21T12:54:19.748Z,33.94165
2023-09-21T12:55:28.450Z,32.733154
2023-09-21T12:56:37.120Z,31.634521
2023-09-21T12:57:45.046Z,31.988525
2023-09-21T12:58:55.089Z,31.427002
2023-09-21T13:00:04.818Z,32.214355
2023-09-21T13:01:15.483Z,31.799316
2023-09-21T13:02:24.305Z,31.829834
2023-09-21T13:03:34.051Z,32.421875
2023-09-21T13:04:42.788Z,31.506348
2023-09-21T13:05:51.402Z,32.183838
2023-09-21T13:07:00.136Z,30.993652
2023-09-21T13:08:08.970Z,30.316162
2023-09-21T13:09:18.551Z,29.705811
2023-09-21T13:10:27.288Z,29.888916